GCFV METAR and TAF | Updated Today

GCFV METAR

Fuerteventura Airport

Observation time: 25 min. ago

GCFV 052100Z 04010KT CAVOK 17/11 Q1025

Need help? Read our tutorial on how to read METARs or read the parsed version below.

Fuerteventura Airport (GCFV) METAR

  • Weather conditions on Sun, 05 Feb 2023 21:00:00 +0000 (25 min. ago):
  • Present conditions: Dry
  • Clouds: Clear skies
  • Visibility: Greater than 10 km
  • Wind: 40 degrees at 10 knots
  • Temperature: 17 celsius
  • Dew point: 11 celsius
  • Pressure: 1025 millibars
  • Remarks: None


Useful to know...

GCFV TAF

Fuerteventura Airport

TAF GCFV 052000Z 0521/0621 05010KT 9999 FEW030 TX20/0614Z TN14/0606Z BECMG 0521/0523 35007KT BECMG 0609/0611 05010KT BECMG 0616/0619 30006KT
Observation time: 85 min. ago
Need help? Read our tutorial on how to read TAFs or read the parsed version below.

Parsed version of TAF for Fuerteventura Airport (GCFV)

  • From 05 February at 21:00 UTC, to day 06 of the month at 21:00 UTC
  • Clouds: A few at 914 meters
  • Visibility: Greater than 10 km
  • Wind: 50 degrees at 10
  • Expected to arise soon, from 05 February at 21:00 UTC, to day 05 of the month at 23:00 UTC
  • Wind: 350 degrees at 7
  • Expected to arise soon, from 06 February at 09:00 UTC, to day 06 of the month at 11:00 UTC
  • Wind: 50 degrees at 10
  • Expected to arise soon, from 06 February at 16:00 UTC, to day 06 of the month at 19:00 UTC
  • Wind: 300 degrees at 6